sensor_id;sensor_type;location;lat;lon;timestamp;P1;durP1;ratioP1;P2;durP2;ratioP2
44606;SDS011;30315;46.072;14.474;2023-03-01T00:01:01;37.38;;;26.05;;
44606;SDS011;30315;46.072;14.474;2023-03-01T00:05:58;36.33;;;26.00;;
44606;SDS011;30315;46.072;14.474;2023-03-01T00:08:26;37.63;;;26.50;;
44606;SDS011;30315;46.072;14.474;2023-03-01T00:11:04;34.15;;;25.42;;
44606;SDS011;30315;46.072;14.474;2023-03-01T00:13:33;36.65;;;26.63;;
44606;SDS011;30315;46.072;14.474;2023-03-01T00:16:04;35.28;;;24.38;;
44606;SDS011;30315;46.072;14.474;2023-03-01T00:18:32;35.72;;;25.40;;
44606;SDS011;30315;46.072;14.474;2023-03-01T00:21:00;34.17;;;25.48;;
44606;SDS011;30315;46.072;14.474;2023-03-01T00:23:27;34.58;;;26.02;;
44606;SDS011;30315;46.072;14.474;2023-03-01T00:25:54;34.17;;;24.50;;
44606;SDS011;30315;46.072;14.474;2023-03-01T00:28:21;33.25;;;24.23;;
44606;SDS011;30315;46.072;14.474;2023-03-01T00:30:48;34.03;;;24.00;;
44606;SDS011;30315;46.072;14.474;2023-03-01T00:33:16;33.33;;;23.58;;
44606;SDS011;30315;46.072;14.474;2023-03-01T00:35:43;37.70;;;25.05;;
44606;SDS011;30315;46.072;14.474;2023-03-01T00:38:10;36.65;;;25.30;;
44606;SDS011;30315;46.072;14.474;2023-03-01T00:40:37;33.95;;;24.60;;
44606;SDS011;30315;46.072;14.474;2023-03-01T00:43:04;36.38;;;24.80;;
44606;SDS011;30315;46.072;14.474;2023-03-01T00:45:32;36.72;;;25.20;;
44606;SDS011;30315;46.072;14.474;2023-03-01T00:47:59;33.33;;;23.95;;
44606;SDS011;30315;46.072;14.474;2023-03-01T00:50:26;35.38;;;25.65;;
44606;SDS011;30315;46.072;14.474;2023-03-01T00:52:54;35.58;;;24.95;;
44606;SDS011;30315;46.072;14.474;2023-03-01T00:55:22;34.65;;;25.83;;
44606;SDS011;30315;46.072;14.474;2023-03-01T00:57:49;36.45;;;25.25;;
44606;SDS011;30315;46.072;14.474;2023-03-01T01:00:17;32.53;;;23.92;;
44606;SDS011;30315;46.072;14.474;2023-03-01T01:02:46;33.35;;;23.55;;
44606;SDS011;30315;46.072;14.474;2023-03-01T01:05:14;33.20;;;23.73;;
44606;SDS011;30315;46.072;14.474;2023-03-01T01:07:41;32.15;;;23.50;;
44606;SDS011;30315;46.072;14.474;2023-03-01T01:10:08;36.45;;;24.65;;
44606;SDS011;30315;46.072;14.474;2023-03-01T01:12:39;37.63;;;24.27;;
44606;SDS011;30315;46.072;14.474;2023-03-01T01:15:06;34.38;;;23.98;;
44606;SDS011;30315;46.072;14.474;2023-03-01T01:17:34;31.25;;;23.88;;
44606;SDS011;30315;46.072;14.474;2023-03-01T01:20:01;32.58;;;24.17;;
44606;SDS011;30315;46.072;14.474;2023-03-01T01:22:29;33.50;;;24.58;;
44606;SDS011;30315;46.072;14.474;2023-03-01T01:24:56;31.67;;;23.67;;
44606;SDS011;30315;46.072;14.474;2023-03-01T01:27:23;33.65;;;24.25;;
44606;SDS011;30315;46.072;14.474;2023-03-01T01:29:52;34.88;;;24.27;;
44606;SDS011;30315;46.072;14.474;2023-03-01T01:32:19;32.13;;;23.48;;
44606;SDS011;30315;46.072;14.474;2023-03-01T01:34:46;34.17;;;23.70;;
44606;SDS011;30315;46.072;14.474;2023-03-01T01:37:13;29.67;;;22.73;;
44606;SDS011;30315;46.072;14.474;2023-03-01T01:39:40;32.10;;;24.05;;
44606;SDS011;30315;46.072;14.474;2023-03-01T01:42:13;35.10;;;23.67;;
44606;SDS011;30315;46.072;14.474;2023-03-01T01:44:44;35.38;;;24.60;;
44606;SDS011;30315;46.072;14.474;2023-03-01T01:47:14;35.55;;;24.75;;
44606;SDS011;30315;46.072;14.474;2023-03-01T01:52:18;34.30;;;25.27;;
44606;SDS011;30315;46.072;14.474;2023-03-01T01:57:39;34.88;;;24.83;;
44606;SDS011;30315;46.072;14.474;2023-03-01T02:00:14;37.13;;;24.85;;
44606;SDS011;30315;46.072;14.474;2023-03-01T02:02:46;35.58;;;25.75;;
44606;SDS011;30315;46.072;14.474;2023-03-01T02:05:42;30.65;;;23.08;;
44606;SDS011;30315;46.072;14.474;2023-03-01T02:08:21;39.60;;;25.30;;
44606;SDS011;30315;46.072;14.474;2023-03-01T02:10:51;36.63;;;24.08;;
44606;SDS011;30315;46.072;14.474;2023-03-01T02:13:20;33.10;;;23.50;;
44606;SDS011;30315;46.072;14.474;2023-03-01T02:15:48;34.72;;;23.98;;
44606;SDS011;30315;46.072;14.474;2023-03-01T02:23:36;32.10;;;23.35;;
44606;SDS011;30315;46.072;14.474;2023-03-01T02:28:36;34.08;;;23.67;;
44606;SDS011;30315;46.072;14.474;2023-03-01T02:31:06;31.73;;;22.65;;
44606;SDS011;30315;46.072;14.474;2023-03-01T02:33:54;31.33;;;22.15;;
44606;SDS011;30315;46.072;14.474;2023-03-01T02:36:24;34.08;;;23.13;;
44606;SDS011;30315;46.072;14.474;2023-03-01T02:38:58;32.33;;;22.40;;
44606;SDS011;30315;46.072;14.474;2023-03-01T02:41:28;33.00;;;22.75;;
44606;SDS011;30315;46.072;14.474;2023-03-01T02:43:58;34.35;;;23.27;;
44606;SDS011;30315;46.072;14.474;2023-03-01T02:46:25;34.55;;;23.83;;
44606;SDS011;30315;46.072;14.474;2023-03-01T02:48:53;35.90;;;24.50;;
44606;SDS011;30315;46.072;14.474;2023-03-01T02:56:49;32.03;;;22.83;;
44606;SDS011;30315;46.072;14.474;2023-03-01T02:59:20;33.53;;;24.27;;
44606;SDS011;30315;46.072;14.474;2023-03-01T03:01:49;34.33;;;23.70;;
44606;SDS011;30315;46.072;14.474;2023-03-01T03:04:17;32.70;;;22.67;;
44606;SDS011;30315;46.072;14.474;2023-03-01T03:06:49;30.58;;;22.15;;
44606;SDS011;30315;46.072;14.474;2023-03-01T03:09:17;31.92;;;22.92;;
44606;SDS011;30315;46.072;14.474;2023-03-01T03:11:45;32.13;;;22.58;;
44606;SDS011;30315;46.072;14.474;2023-03-01T03:14:13;32.33;;;23.55;;
44606;SDS011;30315;46.072;14.474;2023-03-01T03:16:48;32.60;;;22.52;;
44606;SDS011;30315;46.072;14.474;2023-03-01T03:19:17;31.85;;;22.85;;
44606;SDS011;30315;46.072;14.474;2023-03-01T03:21:46;31.95;;;23.05;;
44606;SDS011;30315;46.072;14.474;2023-03-01T03:24:13;33.53;;;23.42;;
44606;SDS011;30315;46.072;14.474;2023-03-01T03:26:40;32.75;;;22.88;;
44606;SDS011;30315;46.072;14.474;2023-03-01T03:29:07;30.90;;;22.40;;
44606;SDS011;30315;46.072;14.474;2023-03-01T03:31:34;33.25;;;23.40;;
44606;SDS011;30315;46.072;14.474;2023-03-01T03:34:01;33.72;;;23.63;;
44606;SDS011;30315;46.072;14.474;2023-03-01T03:36:28;33.38;;;23.33;;
44606;SDS011;30315;46.072;14.474;2023-03-01T03:38:55;35.88;;;25.02;;
44606;SDS011;30315;46.072;14.474;2023-03-01T03:41:22;30.92;;;23.05;;
44606;SDS011;30315;46.072;14.474;2023-03-01T03:43:49;35.67;;;24.15;;
44606;SDS011;30315;46.072;14.474;2023-03-01T03:46:16;32.17;;;23.10;;
44606;SDS011;30315;46.072;14.474;2023-03-01T03:48:44;35.58;;;23.70;;
44606;SDS011;30315;46.072;14.474;2023-03-01T03:51:13;34.78;;;23.58;;
44606;SDS011;30315;46.072;14.474;2023-03-01T03:53:42;33.05;;;23.73;;
44606;SDS011;30315;46.072;14.474;2023-03-01T03:56:09;33.67;;;24.27;;
44606;SDS011;30315;46.072;14.474;2023-03-01T03:58:37;32.25;;;23.55;;
44606;SDS011;30315;46.072;14.474;2023-03-01T04:01:04;33.35;;;23.73;;
44606;SDS011;30315;46.072;14.474;2023-03-01T04:03:31;31.73;;;23.15;;
44606;SDS011;30315;46.072;14.474;2023-03-01T04:06:01;33.90;;;24.15;;
44606;SDS011;30315;46.072;14.474;2023-03-01T04:08:30;35.37;;;24.60;;
44606;SDS011;30315;46.072;14.474;2023-03-01T04:10:58;33.35;;;23.23;;
44606;SDS011;30315;46.072;14.474;2023-03-01T04:13:47;33.67;;;23.27;;
44606;SDS011;30315;46.072;14.474;2023-03-01T04:16:14;33.70;;;24.35;;
44606;SDS011;30315;46.072;14.474;2023-03-01T04:18:41;38.35;;;24.60;;
44606;SDS011;30315;46.072;14.474;2023-03-01T04:21:08;31.63;;;23.02;;
44606;SDS011;30315;46.072;14.474;2023-03-01T04:23:37;35.35;;;24.67;;
44606;SDS011;30315;46.072;14.474;2023-03-01T04:26:05;34.85;;;24.88;;
44606;SDS011;30315;46.072;14.474;2023-03-01T04:28:36;33.40;;;23.08;;
44606;SDS011;30315;46.072;14.474;2023-03-01T04:31:07;34.78;;;24.67;;
44606;SDS011;30315;46.072;14.474;2023-03-01T04:33:40;34.10;;;23.63;;
44606;SDS011;30315;46.072;14.474;2023-03-01T04:36:12;35.40;;;25.00;;
44606;SDS011;30315;46.072;14.474;2023-03-01T04:38:41;35.05;;;24.33;;
44606;SDS011;30315;46.072;14.474;2023-03-01T04:41:09;34.20;;;24.42;;
44606;SDS011;30315;46.072;14.474;2023-03-01T04:43:37;32.83;;;23.70;;
44606;SDS011;30315;46.072;14.474;2023-03-01T04:46:06;32.42;;;24.60;;
44606;SDS011;30315;46.072;14.474;2023-03-01T04:48:36;37.13;;;24.77;;
44606;SDS011;30315;46.072;14.474;2023-03-01T04:51:04;32.97;;;23.35;;
44606;SDS011;30315;46.072;14.474;2023-03-01T04:53:32;34.20;;;23.95;;
44606;SDS011;30315;46.072;14.474;2023-03-01T04:56:00;35.10;;;24.60;;
44606;SDS011;30315;46.072;14.474;2023-03-01T04:58:27;33.78;;;24.88;;
44606;SDS011;30315;46.072;14.474;2023-03-01T05:00:55;37.28;;;25.23;;
44606;SDS011;30315;46.072;14.474;2023-03-01T05:03:22;36.42;;;24.85;;
44606;SDS011;30315;46.072;14.474;2023-03-01T05:05:50;35.20;;;24.83;;
44606;SDS011;30315;46.072;14.474;2023-03-01T05:08:18;35.75;;;25.27;;
44606;SDS011;30315;46.072;14.474;2023-03-01T05:10:53;33.42;;;24.52;;
44606;SDS011;30315;46.072;14.474;2023-03-01T05:13:21;35.25;;;24.95;;
44606;SDS011;30315;46.072;14.474;2023-03-01T05:18:23;37.33;;;25.00;;
44606;SDS011;30315;46.072;14.474;2023-03-01T05:20:54;35.53;;;25.60;;
44606;SDS011;30315;46.072;14.474;2023-03-01T05:23:24;37.42;;;26.38;;
44606;SDS011;30315;46.072;14.474;2023-03-01T05:25:51;35.20;;;25.88;;
44606;SDS011;30315;46.072;14.474;2023-03-01T05:28:19;39.70;;;26.48;;
44606;SDS011;30315;46.072;14.474;2023-03-01T05:30:46;40.55;;;26.30;;
44606;SDS011;30315;46.072;14.474;2023-03-01T05:33:13;38.10;;;25.83;;
44606;SDS011;30315;46.072;14.474;2023-03-01T05:35:41;40.42;;;26.50;;
44606;SDS011;30315;46.072;14.474;2023-03-01T05:38:10;37.13;;;25.55;;
44606;SDS011;30315;46.072;14.474;2023-03-01T05:40:42;35.90;;;25.98;;
44606;SDS011;30315;46.072;14.474;2023-03-01T05:43:12;34.75;;;25.10;;
44606;SDS011;30315;46.072;14.474;2023-03-01T05:45:40;32.97;;;25.43;;
44606;SDS011;30315;46.072;14.474;2023-03-01T05:48:08;34.58;;;25.95;;
44606;SDS011;30315;46.072;14.474;2023-03-01T05:50:38;34.78;;;24.63;;
44606;SDS011;30315;46.072;14.474;2023-03-01T05:55:38;35.10;;;24.92;;
44606;SDS011;30315;46.072;14.474;2023-03-01T05:58:06;36.75;;;24.67;;
44606;SDS011;30315;46.072;14.474;2023-03-01T06:00:36;34.70;;;24.52;;
44606;SDS011;30315;46.072;14.474;2023-03-01T06:03:03;36.10;;;24.67;;
44606;SDS011;30315;46.072;14.474;2023-03-01T06:05:30;33.85;;;24.60;;
44606;SDS011;30315;46.072;14.474;2023-03-01T06:07:58;36.65;;;24.88;;
44606;SDS011;30315;46.072;14.474;2023-03-01T06:10:27;34.00;;;23.98;;
44606;SDS011;30315;46.072;14.474;2023-03-01T06:12:55;34.63;;;25.05;;
44606;SDS011;30315;46.072;14.474;2023-03-01T06:15:23;38.28;;;25.20;;
44606;SDS011;30315;46.072;14.474;2023-03-01T06:17:51;33.53;;;24.38;;
44606;SDS011;30315;46.072;14.474;2023-03-01T06:20:24;32.13;;;23.55;;
44606;SDS011;30315;46.072;14.474;2023-03-01T06:22:52;35.90;;;24.98;;
44606;SDS011;30315;46.072;14.474;2023-03-01T06:25:21;33.63;;;23.70;;
44606;SDS011;30315;46.072;14.474;2023-03-01T06:27:50;34.13;;;24.55;;
44606;SDS011;30315;46.072;14.474;2023-03-01T06:30:19;34.55;;;23.38;;
44606;SDS011;30315;46.072;14.474;2023-03-01T06:32:47;33.10;;;22.98;;
44606;SDS011;30315;46.072;14.474;2023-03-01T06:35:15;29.63;;;22.92;;
44606;SDS011;30315;46.072;14.474;2023-03-01T06:37:46;29.45;;;20.90;;
44606;SDS011;30315;46.072;14.474;2023-03-01T06:40:14;29.23;;;21.55;;
44606;SDS011;30315;46.072;14.474;2023-03-01T06:42:42;32.42;;;23.17;;
44606;SDS011;30315;46.072;14.474;2023-03-01T06:45:14;28.17;;;21.17;;
44606;SDS011;30315;46.072;14.474;2023-03-01T06:47:41;31.23;;;22.23;;
44606;SDS011;30315;46.072;14.474;2023-03-01T06:50:08;30.90;;;21.45;;
44606;SDS011;30315;46.072;14.474;2023-03-01T06:52:38;29.75;;;22.42;;
44606;SDS011;30315;46.072;14.474;2023-03-01T06:55:05;28.63;;;21.77;;
44606;SDS011;30315;46.072;14.474;2023-03-01T06:57:34;30.70;;;22.40;;
44606;SDS011;30315;46.072;14.474;2023-03-01T07:00:07;28.63;;;21.10;;
44606;SDS011;30315;46.072;14.474;2023-03-01T07:03:04;30.42;;;21.83;;
44606;SDS011;30315;46.072;14.474;2023-03-01T07:09:07;28.23;;;20.30;;
44606;SDS011;30315;46.072;14.474;2023-03-01T07:11:37;28.23;;;20.17;;
44606;SDS011;30315;46.072;14.474;2023-03-01T07:14:05;30.50;;;22.17;;
44606;SDS011;30315;46.072;14.474;2023-03-01T07:16:33;28.85;;;20.77;;
44606;SDS011;30315;46.072;14.474;2023-03-01T07:19:00;31.65;;;23.00;;
44606;SDS011;30315;46.072;14.474;2023-03-01T07:21:28;30.48;;;21.85;;
44606;SDS011;30315;46.072;14.474;2023-03-01T07:23:54;29.67;;;20.35;;
44606;SDS011;30315;46.072;14.474;2023-03-01T07:26:21;31.05;;;21.63;;
44606;SDS011;30315;46.072;14.474;2023-03-01T07:28:51;40.50;;;26.17;;
44606;SDS011;30315;46.072;14.474;2023-03-01T07:31:18;38.55;;;24.83;;
44606;SDS011;30315;46.072;14.474;2023-03-01T07:33:45;28.88;;;21.98;;
44606;SDS011;30315;46.072;14.474;2023-03-01T07:36:12;30.10;;;21.40;;
44606;SDS011;30315;46.072;14.474;2023-03-01T07:38:39;29.67;;;21.45;;
44606;SDS011;30315;46.072;14.474;2023-03-01T07:41:05;27.58;;;20.55;;
44606;SDS011;30315;46.072;14.474;2023-03-01T07:43:32;27.58;;;20.55;;
44606;SDS011;30315;46.072;14.474;2023-03-01T07:46:03;31.08;;;21.30;;
44606;SDS011;30315;46.072;14.474;2023-03-01T07:48:31;29.77;;;21.73;;
44606;SDS011;30315;46.072;14.474;2023-03-01T07:51:03;31.13;;;21.60;;
44606;SDS011;30315;46.072;14.474;2023-03-01T07:53:31;30.65;;;21.08;;
44606;SDS011;30315;46.072;14.474;2023-03-01T07:56:01;33.17;;;22.02;;
44606;SDS011;30315;46.072;14.474;2023-03-01T07:58:34;30.25;;;22.35;;
44606;SDS011;30315;46.072;14.474;2023-03-01T08:01:02;28.00;;;20.15;;
44606;SDS011;30315;46.072;14.474;2023-03-01T08:03:29;30.60;;;21.02;;
44606;SDS011;30315;46.072;14.474;2023-03-01T08:05:59;29.67;;;21.33;;
44606;SDS011;30315;46.072;14.474;2023-03-01T08:08:27;29.00;;;22.23;;
44606;SDS011;30315;46.072;14.474;2023-03-01T08:10:57;27.90;;;20.27;;
44606;SDS011;30315;46.072;14.474;2023-03-01T08:13:25;31.48;;;21.55;;
44606;SDS011;30315;46.072;14.474;2023-03-01T08:15:53;30.85;;;21.58;;
44606;SDS011;30315;46.072;14.474;2023-03-01T08:18:20;29.63;;;21.08;;
44606;SDS011;30315;46.072;14.474;2023-03-01T08:20:47;29.67;;;20.60;;
44606;SDS011;30315;46.072;14.474;2023-03-01T08:23:14;30.30;;;21.38;;
44606;SDS011;30315;46.072;14.474;2023-03-01T08:25:42;27.23;;;19.88;;
44606;SDS011;30315;46.072;14.474;2023-03-01T08:28:09;26.98;;;20.63;;
44606;SDS011;30315;46.072;14.474;2023-03-01T08:30:36;30.35;;;21.98;;
44606;SDS011;30315;46.072;14.474;2023-03-01T08:33:03;30.63;;;21.17;;
44606;SDS011;30315;46.072;14.474;2023-03-01T08:35:30;29.90;;;21.67;;
44606;SDS011;30315;46.072;14.474;2023-03-01T08:37:56;30.48;;;21.42;;
44606;SDS011;30315;46.072;14.474;2023-03-01T08:40:23;31.65;;;21.35;;
44606;SDS011;30315;46.072;14.474;2023-03-01T08:42:50;32.03;;;22.85;;
44606;SDS011;30315;46.072;14.474;2023-03-01T08:45:17;34.63;;;22.27;;
44606;SDS011;30315;46.072;14.474;2023-03-01T08:47:44;30.08;;;22.65;;
44606;SDS011;30315;46.072;14.474;2023-03-01T08:50:11;29.33;;;22.20;;
44606;SDS011;30315;46.072;14.474;2023-03-01T08:52:38;32.28;;;23.05;;
44606;SDS011;30315;46.072;14.474;2023-03-01T08:55:05;33.58;;;23.60;;
44606;SDS011;30315;46.072;14.474;2023-03-01T08:57:33;38.88;;;24.75;;
44606;SDS011;30315;46.072;14.474;2023-03-01T09:00:00;32.58;;;22.75;;
44606;SDS011;30315;46.072;14.474;2023-03-01T09:02:27;36.22;;;24.23;;
44606;SDS011;30315;46.072;14.474;2023-03-01T09:04:54;32.47;;;23.45;;
44606;SDS011;30315;46.072;14.474;2023-03-01T09:07:20;32.72;;;23.73;;
44606;SDS011;30315;46.072;14.474;2023-03-01T09:09:47;33.22;;;23.73;;
44606;SDS011;30315;46.072;14.474;2023-03-01T09:12:14;36.08;;;24.33;;
44606;SDS011;30315;46.072;14.474;2023-03-01T09:14:41;33.25;;;23.70;;
44606;SDS011;30315;46.072;14.474;2023-03-01T09:17:08;30.95;;;22.55;;
44606;SDS011;30315;46.072;14.474;2023-03-01T09:19:35;36.35;;;24.58;;
44606;SDS011;30315;46.072;14.474;2023-03-01T09:22:03;33.60;;;24.52;;
44606;SDS011;30315;46.072;14.474;2023-03-01T09:24:30;31.40;;;23.13;;
44606;SDS011;30315;46.072;14.474;2023-03-01T09:26:57;31.88;;;23.08;;
44606;SDS011;30315;46.072;14.474;2023-03-01T09:29:24;33.47;;;23.20;;
44606;SDS011;30315;46.072;14.474;2023-03-01T09:31:52;32.83;;;22.88;;
44606;SDS011;30315;46.072;14.474;2023-03-01T09:34:21;34.40;;;22.42;;
44606;SDS011;30315;46.072;14.474;2023-03-01T09:36:50;30.70;;;22.02;;
44606;SDS011;30315;46.072;14.474;2023-03-01T09:39:17;32.67;;;22.45;;
44606;SDS011;30315;46.072;14.474;2023-03-01T09:41:46;29.70;;;22.23;;
44606;SDS011;30315;46.072;14.474;2023-03-01T09:44:40;30.60;;;24.02;;
44606;SDS011;30315;46.072;14.474;2023-03-01T09:47:29;33.42;;;23.58;;
44606;SDS011;30315;46.072;14.474;2023-03-01T09:50:18;32.72;;;24.67;;
44606;SDS011;30315;46.072;14.474;2023-03-01T09:53:04;34.20;;;24.52;;
44606;SDS011;30315;46.072;14.474;2023-03-01T10:04:46;32.53;;;24.33;;
44606;SDS011;30315;46.072;14.474;2023-03-01T10:07:27;32.47;;;23.35;;
44606;SDS011;30315;46.072;14.474;2023-03-01T10:10:10;34.05;;;23.80;;
44606;SDS011;30315;46.072;14.474;2023-03-01T10:13:18;33.50;;;23.55;;
44606;SDS011;30315;46.072;14.474;2023-03-01T10:16:24;35.05;;;24.08;;
44606;SDS011;30315;46.072;14.474;2023-03-01T10:18:46;39.45;;;25.40;;
44606;SDS011;30315;46.072;14.474;2023-03-01T10:21:19;34.20;;;24.63;;
44606;SDS011;30315;46.072;14.474;2023-03-01T10:23:49;33.35;;;24.25;;
44606;SDS011;30315;46.072;14.474;2023-03-01T10:26:22;35.03;;;24.33;;
44606;SDS011;30315;46.072;14.474;2023-03-01T10:29:39;32.22;;;23.20;;
44606;SDS011;30315;46.072;14.474;2023-03-01T10:32:43;34.25;;;23.50;;
44606;SDS011;30315;46.072;14.474;2023-03-01T10:40:34;31.02;;;22.77;;
44606;SDS011;30315;46.072;14.474;2023-03-01T10:43:15;30.70;;;22.55;;
44606;SDS011;30315;46.072;14.474;2023-03-01T10:45:43;32.13;;;23.38;;
44606;SDS011;30315;46.072;14.474;2023-03-01T10:53:41;30.83;;;22.73;;
44606;SDS011;30315;46.072;14.474;2023-03-01T10:56:17;29.60;;;22.35;;
44606;SDS011;30315;46.072;14.474;2023-03-01T11:01:33;31.30;;;22.48;;
44606;SDS011;30315;46.072;14.474;2023-03-01T11:06:36;31.80;;;22.67;;
44606;SDS011;30315;46.072;14.474;2023-03-01T11:09:14;32.88;;;23.83;;
44606;SDS011;30315;46.072;14.474;2023-03-01T11:11:55;30.42;;;22.90;;
44606;SDS011;30315;46.072;14.474;2023-03-01T11:14:25;31.85;;;22.98;;
44606;SDS011;30315;46.072;14.474;2023-03-01T11:22:44;33.30;;;23.90;;
44606;SDS011;30315;46.072;14.474;2023-03-01T11:25:19;32.17;;;22.08;;
44606;SDS011;30315;46.072;14.474;2023-03-01T11:27:55;30.05;;;21.83;;
44606;SDS011;30315;46.072;14.474;2023-03-01T11:30:24;31.38;;;23.70;;
44606;SDS011;30315;46.072;14.474;2023-03-01T11:33:03;30.63;;;22.95;;
44606;SDS011;30315;46.072;14.474;2023-03-01T11:38:48;31.33;;;22.38;;
44606;SDS011;30315;46.072;14.474;2023-03-01T11:41:33;25.70;;;20.75;;
44606;SDS011;30315;46.072;14.474;2023-03-01T11:44:03;29.38;;;21.98;;
44606;SDS011;30315;46.072;14.474;2023-03-01T11:50:57;32.90;;;21.25;;
44606;SDS011;30315;46.072;14.474;2023-03-01T12:18:50;27.25;;;20.77;;
44606;SDS011;30315;46.072;14.474;2023-03-01T12:27:12;29.48;;;20.70;;
44606;SDS011;30315;46.072;14.474;2023-03-01T12:54:49;26.50;;;19.58;;
44606;SDS011;30315;46.072;14.474;2023-03-01T13:00:41;27.20;;;20.65;;
44606;SDS011;30315;46.072;14.474;2023-03-01T13:03:23;30.38;;;21.27;;
44606;SDS011;30315;46.072;14.474;2023-03-01T13:06:08;30.85;;;21.50;;
44606;SDS011;30315;46.072;14.474;2023-03-01T13:11:17;29.35;;;20.80;;
44606;SDS011;30315;46.072;14.474;2023-03-01T13:13:47;30.70;;;22.48;;
44606;SDS011;30315;46.072;14.474;2023-03-01T13:16:20;29.17;;;21.83;;
44606;SDS011;30315;46.072;14.474;2023-03-01T13:22:25;28.55;;;21.02;;
44606;SDS011;30315;46.072;14.474;2023-03-01T13:25:02;26.38;;;19.90;;
44606;SDS011;30315;46.072;14.474;2023-03-01T13:27:41;32.35;;;23.05;;
44606;SDS011;30315;46.072;14.474;2023-03-01T13:30:57;36.22;;;22.55;;
44606;SDS011;30315;46.072;14.474;2023-03-01T13:35:54;27.88;;;20.77;;
44606;SDS011;30315;46.072;14.474;2023-03-01T13:46:53;23.13;;;18.23;;
44606;SDS011;30315;46.072;14.474;2023-03-01T13:49:27;30.38;;;18.02;;
44606;SDS011;30315;46.072;14.474;2023-03-01T13:54:53;23.05;;;15.68;;
44606;SDS011;30315;46.072;14.474;2023-03-01T13:57:24;23.00;;;16.13;;
44606;SDS011;30315;46.072;14.474;2023-03-01T13:59:56;20.65;;;15.02;;
44606;SDS011;30315;46.072;14.474;2023-03-01T14:02:23;19.35;;;14.68;;
44606;SDS011;30315;46.072;14.474;2023-03-01T14:04:57;20.02;;;14.63;;
44606;SDS011;30315;46.072;14.474;2023-03-01T14:07:26;18.70;;;14.35;;
44606;SDS011;30315;46.072;14.474;2023-03-01T14:10:01;27.20;;;15.18;;
44606;SDS011;30315;46.072;14.474;2023-03-01T14:25:34;31.77;;;21.38;;
44606;SDS011;30315;46.072;14.474;2023-03-01T14:30:42;27.63;;;20.30;;
44606;SDS011;30315;46.072;14.474;2023-03-01T14:41:27;28.35;;;19.20;;
44606;SDS011;30315;46.072;14.474;2023-03-01T14:58:17;24.65;;;18.27;;
44606;SDS011;30315;46.072;14.474;2023-03-01T15:05:02;14.32;;;11.65;;
44606;SDS011;30315;46.072;14.474;2023-03-01T15:07:35;17.50;;;12.60;;
44606;SDS011;30315;46.072;14.474;2023-03-01T15:10:18;14.48;;;10.93;;
44606;SDS011;30315;46.072;14.474;2023-03-01T15:12:51;19.08;;;11.93;;
44606;SDS011;30315;46.072;14.474;2023-03-01T15:18:18;16.75;;;13.07;;
44606;SDS011;30315;46.072;14.474;2023-03-01T15:20:53;15.32;;;12.48;;
44606;SDS011;30315;46.072;14.474;2023-03-01T15:23:24;16.63;;;12.40;;
44606;SDS011;30315;46.072;14.474;2023-03-01T15:25:54;16.58;;;13.32;;
44606;SDS011;30315;46.072;14.474;2023-03-01T15:28:25;16.52;;;12.27;;
44606;SDS011;30315;46.072;14.474;2023-03-01T15:31:00;16.98;;;13.13;;
44606;SDS011;30315;46.072;14.474;2023-03-01T15:33:32;20.58;;;13.25;;
44606;SDS011;30315;46.072;14.474;2023-03-01T15:36:02;17.17;;;13.07;;
44606;SDS011;30315;46.072;14.474;2023-03-01T15:38:53;20.02;;;14.60;;
44606;SDS011;30315;46.072;14.474;2023-03-01T15:41:28;20.52;;;15.25;;
44606;SDS011;30315;46.072;14.474;2023-03-01T15:47:39;17.90;;;13.18;;
44606;SDS011;30315;46.072;14.474;2023-03-01T15:50:15;18.25;;;14.07;;
44606;SDS011;30315;46.072;14.474;2023-03-01T15:52:47;16.27;;;12.40;;
44606;SDS011;30315;46.072;14.474;2023-03-01T15:55:54;13.98;;;11.63;;
44606;SDS011;30315;46.072;14.474;2023-03-01T15:58:22;13.40;;;11.02;;
44606;SDS011;30315;46.072;14.474;2023-03-01T16:00:50;16.42;;;13.25;;
44606;SDS011;30315;46.072;14.474;2023-03-01T16:03:27;20.45;;;15.77;;
44606;SDS011;30315;46.072;14.474;2023-03-01T16:05:54;19.35;;;16.15;;
44606;SDS011;30315;46.072;14.474;2023-03-01T16:08:22;20.90;;;16.02;;
44606;SDS011;30315;46.072;14.474;2023-03-01T16:10:49;23.40;;;17.05;;
44606;SDS011;30315;46.072;14.474;2023-03-01T16:13:18;21.00;;;16.73;;
44606;SDS011;30315;46.072;14.474;2023-03-01T16:20:02;20.48;;;15.85;;
44606;SDS011;30315;46.072;14.474;2023-03-01T16:22:31;19.92;;;16.13;;
44606;SDS011;30315;46.072;14.474;2023-03-01T16:24:58;18.23;;;15.38;;
44606;SDS011;30315;46.072;14.474;2023-03-01T16:27:25;17.52;;;14.35;;
44606;SDS011;30315;46.072;14.474;2023-03-01T16:29:52;19.55;;;14.90;;
44606;SDS011;30315;46.072;14.474;2023-03-01T16:32:19;18.40;;;14.07;;
44606;SDS011;30315;46.072;14.474;2023-03-01T16:34:46;17.40;;;15.10;;
44606;SDS011;30315;46.072;14.474;2023-03-01T16:37:18;16.77;;;14.98;;
44606;SDS011;30315;46.072;14.474;2023-03-01T16:39:55;15.52;;;13.73;;
44606;SDS011;30315;46.072;14.474;2023-03-01T16:42:22;17.40;;;14.35;;
44606;SDS011;30315;46.072;14.474;2023-03-01T16:48:04;18.35;;;14.75;;
44606;SDS011;30315;46.072;14.474;2023-03-01T16:50:34;18.10;;;14.43;;
44606;SDS011;30315;46.072;14.474;2023-03-01T16:53:14;17.05;;;15.25;;
44606;SDS011;30315;46.072;14.474;2023-03-01T17:00:33;17.23;;;14.10;;
44606;SDS011;30315;46.072;14.474;2023-03-01T17:11:42;14.40;;;11.90;;
44606;SDS011;30315;46.072;14.474;2023-03-01T17:14:09;13.65;;;11.93;;
44606;SDS011;30315;46.072;14.474;2023-03-01T17:16:36;13.43;;;12.02;;
44606;SDS011;30315;46.072;14.474;2023-03-01T17:19:03;13.23;;;11.88;;
44606;SDS011;30315;46.072;14.474;2023-03-01T17:21:30;12.43;;;11.23;;
44606;SDS011;30315;46.072;14.474;2023-03-01T17:24:37;13.40;;;12.00;;
44606;SDS011;30315;46.072;14.474;2023-03-01T17:27:20;12.68;;;11.13;;
44606;SDS011;30315;46.072;14.474;2023-03-01T17:29:51;13.55;;;12.15;;
44606;SDS011;30315;46.072;14.474;2023-03-01T17:32:17;13.23;;;11.75;;
44606;SDS011;30315;46.072;14.474;2023-03-01T17:34:45;13.50;;;11.75;;
44606;SDS011;30315;46.072;14.474;2023-03-01T17:37:13;12.63;;;11.32;;
44606;SDS011;30315;46.072;14.474;2023-03-01T17:39:54;14.05;;;12.32;;
44606;SDS011;30315;46.072;14.474;2023-03-01T17:42:34;12.48;;;11.18;;
44606;SDS011;30315;46.072;14.474;2023-03-01T17:45:01;12.25;;;11.00;;
44606;SDS011;30315;46.072;14.474;2023-03-01T17:47:38;11.90;;;10.70;;
44606;SDS011;30315;46.072;14.474;2023-03-01T17:50:16;11.98;;;10.63;;
44606;SDS011;30315;46.072;14.474;2023-03-01T18:06:40;14.30;;;11.80;;
44606;SDS011;30315;46.072;14.474;2023-03-01T18:59:43;20.92;;;13.10;;
44606;SDS011;30315;46.072;14.474;2023-03-01T19:02:16;17.77;;;13.50;;
44606;SDS011;30315;46.072;14.474;2023-03-01T19:08:48;19.27;;;14.75;;
44606;SDS011;30315;46.072;14.474;2023-03-01T19:16:55;13.55;;;12.05;;
44606;SDS011;30315;46.072;14.474;2023-03-01T19:21:12;14.15;;;12.20;;
44606;SDS011;30315;46.072;14.474;2023-03-01T19:25:34;13.38;;;10.05;;